createdAt,value
2023-04-05T00:00:32.726Z,52.71
2023-04-05T00:03:00.394Z,53.22
2023-04-05T00:05:32.016Z,53.49
2023-04-05T00:08:00.883Z,52.45
2023-04-05T00:10:28.714Z,52.58
2023-04-05T00:12:56.076Z,52.21
2023-04-05T00:15:23.347Z,52.19
2023-04-05T00:17:50.860Z,53.76
2023-04-05T00:20:17.950Z,52.68
2023-04-05T00:22:45.037Z,53.87
2023-04-05T00:25:12.767Z,53.26
2023-04-05T00:27:43.470Z,52.69
2023-04-05T00:30:21.328Z,52.91
2023-04-05T00:32:50.242Z,52.74
2023-04-05T00:35:17.915Z,53.16
2023-04-05T00:37:46.499Z,52.69
2023-04-05T00:40:14.342Z,52.05
2023-04-05T00:42:41.359Z,53.19
2023-04-05T00:45:09.166Z,53.12
2023-04-05T00:47:37.167Z,52.44
2023-04-05T00:50:04.269Z,52.59
2023-04-05T00:52:31.438Z,54.41
2023-04-05T00:54:58.898Z,54.08
2023-04-05T00:57:26.707Z,53.74
2023-04-05T00:59:53.866Z,52.95
2023-04-05T01:02:32.074Z,52.43
2023-04-05T01:05:03.268Z,52.02
2023-04-05T01:07:42.525Z,52.54
2023-04-05T01:10:13.665Z,53.62
2023-04-05T01:12:41.533Z,51.66
2023-04-05T01:15:09.523Z,50.28
2023-04-05T01:17:39.507Z,49.94
2023-04-05T01:20:18.449Z,50.17
2023-04-05T01:23:25.275Z,49.16
2023-04-05T01:26:10.318Z,47.83
2023-04-05T01:29:09.997Z,48.94
2023-04-05T01:31:47.306Z,51.47
2023-04-05T01:34:26.193Z,49.88
2023-04-05T01:37:04.177Z,48.50
2023-04-05T01:39:32.296Z,47.36
2023-04-05T01:42:01.731Z,48.55
2023-04-05T01:44:29.765Z,48.57
2023-04-05T01:46:57.480Z,54.30
2023-04-05T01:49:25.708Z,51.17
2023-04-05T01:51:53.066Z,49.91
2023-04-05T01:54:20.120Z,49.70
2023-04-05T01:56:47.564Z,48.19
2023-04-05T01:59:20.720Z,47.52
2023-04-05T02:01:47.996Z,49.61
2023-04-05T02:04:15.236Z,49.27
2023-04-05T02:06:42.865Z,50.76
2023-04-05T02:09:09.773Z,49.92
2023-04-05T02:11:36.833Z,48.42
2023-04-05T02:14:04.837Z,48.19
2023-04-05T02:16:34.444Z,48.45
2023-04-05T02:19:01.746Z,48.21
2023-04-05T02:21:29.306Z,49.34
2023-04-05T02:23:56.608Z,50.12
2023-04-05T02:26:24.768Z,49.34
2023-04-05T02:28:52.481Z,50.89
2023-04-05T02:31:20.108Z,52.82
2023-04-05T02:33:49.249Z,55.45
2023-04-05T02:36:16.417Z,52.61
2023-04-05T02:38:43.938Z,54.04
2023-04-05T02:41:30.887Z,54.89
2023-04-05T02:43:57.929Z,54.70
2023-04-05T02:46:24.932Z,53.59
2023-04-05T02:48:52.429Z,55.32
2023-04-05T02:51:19.444Z,55.93
2023-04-05T02:53:46.674Z,55.79
2023-04-05T02:56:14.519Z,57.99
2023-04-05T02:58:41.970Z,57.74
2023-04-05T03:01:09.106Z,59.84
2023-04-05T03:03:36.301Z,59.03
2023-04-05T03:06:12.046Z,57.96
2023-04-05T03:08:44.426Z,57.60
2023-04-05T03:11:12.040Z,57.94
2023-04-05T03:13:39.139Z,59.09
2023-04-05T03:16:06.485Z,57.99
2023-04-05T03:18:33.568Z,57.31
2023-04-05T03:21:00.583Z,57.59
2023-04-05T03:23:30.690Z,58.93
2023-04-05T03:25:58.467Z,59.02
2023-04-05T03:28:26.326Z,60.97
2023-04-05T03:30:53.534Z,59.61
2023-04-05T03:33:21.377Z,58.32
2023-04-05T03:35:49.619Z,58.21
2023-04-05T03:38:17.874Z,57.75
2023-04-05T03:40:45.634Z,57.18
2023-04-05T03:43:14.067Z,57.00
2023-04-05T03:45:41.768Z,58.48
2023-04-05T03:48:10.423Z,59.11
2023-04-05T03:50:37.832Z,57.10
2023-04-05T03:53:05.003Z,57.72
2023-04-05T03:55:32.455Z,58.20
2023-04-05T03:57:59.445Z,57.07
2023-04-05T04:00:26.502Z,59.25
2023-04-05T04:02:53.707Z,59.45
2023-04-05T04:05:22.079Z,57.84
2023-04-05T04:07:49.169Z,59.47
2023-04-05T04:10:20.050Z,59.37
2023-04-05T04:12:47.136Z,58.99
2023-04-05T04:15:14.181Z,59.34
2023-04-05T04:17:41.428Z,57.98
2023-04-05T04:20:11.434Z,58.45
2023-04-05T04:22:40.688Z,56.42
2023-04-05T04:25:10.921Z,57.10
2023-04-05T04:27:43.101Z,57.54
2023-04-05T04:30:12.940Z,56.62
2023-04-05T04:32:55.669Z,56.51
2023-04-05T04:35:29.387Z,57.27
2023-04-05T04:38:04.922Z,57.51
2023-04-05T04:40:39.817Z,57.50
2023-04-05T04:43:14.600Z,57.45
2023-04-05T04:45:42.322Z,57.03
2023-04-05T04:48:10.211Z,57.70
2023-04-05T04:50:37.883Z,56.75
2023-04-05T04:53:04.918Z,55.73
2023-04-05T04:55:33.752Z,53.80
2023-04-05T04:58:00.832Z,54.33
2023-04-05T05:00:27.914Z,52.98
2023-04-05T05:02:56.416Z,52.13
2023-04-05T05:05:23.695Z,50.78
2023-04-05T05:07:50.936Z,49.60
2023-04-05T05:10:19.043Z,47.95
2023-04-05T05:12:46.242Z,47.46
2023-04-05T05:15:13.278Z,45.12
2023-04-05T05:17:40.656Z,43.62
2023-04-05T05:20:11.462Z,41.74
2023-04-05T05:22:39.636Z,39.76
2023-04-05T05:25:09.041Z,37.70
2023-04-05T05:27:36.602Z,36.80
2023-04-05T05:30:04.331Z,36.28
2023-04-05T05:32:31.582Z,34.92
2023-04-05T05:34:58.676Z,34.53
2023-04-05T05:37:33.700Z,34.19
2023-04-05T05:40:00.972Z,36.34
2023-04-05T05:42:28.587Z,36.65
2023-04-05T05:44:56.216Z,35.47
2023-04-05T05:47:23.376Z,38.14
2023-04-05T05:49:50.704Z,36.11
2023-04-05T05:52:17.678Z,36.76
2023-04-05T05:54:44.803Z,35.86
2023-04-05T05:57:11.922Z,34.95
2023-04-05T05:59:39.114Z,35.05
2023-04-05T06:02:06.106Z,35.99
2023-04-05T06:04:34.578Z,35.81
2023-04-05T06:07:01.989Z,35.12
2023-04-05T06:09:29.488Z,34.53
2023-04-05T06:11:57.397Z,34.46
2023-04-05T06:14:25.436Z,33.62
2023-04-05T06:16:52.870Z,32.62
2023-04-05T06:19:19.887Z,34.26
2023-04-05T06:21:47.166Z,37.63
2023-04-05T06:24:14.550Z,38.09
2023-04-05T06:26:41.654Z,40.40
2023-04-05T06:29:08.692Z,42.62
2023-04-05T06:31:36.979Z,42.82
2023-04-05T06:34:04.179Z,43.96
2023-04-05T06:36:32.450Z,45.33
2023-04-05T06:38:59.751Z,46.20
2023-04-05T06:41:28.032Z,43.03
2023-04-05T06:43:56.406Z,43.61
2023-04-05T06:46:24.565Z,43.92
2023-04-05T06:48:53.105Z,44.08
2023-04-05T06:51:20.538Z,42.88
2023-04-05T06:53:47.564Z,41.05
2023-04-05T06:56:16.651Z,41.63
2023-04-05T06:58:44.720Z,42.79
2023-04-05T07:01:12.428Z,44.28
2023-04-05T07:03:39.717Z,44.98
2023-04-05T07:06:08.006Z,43.32
2023-04-05T07:08:35.175Z,43.80
2023-04-05T07:11:02.355Z,42.59
2023-04-05T07:13:30.556Z,42.25
2023-04-05T07:16:02.705Z,43.69
2023-04-05T07:18:30.427Z,42.54
2023-04-05T07:21:06.015Z,42.41
2023-04-05T07:23:33.060Z,40.00
2023-04-05T07:26:05.431Z,40.69
2023-04-05T07:28:34.627Z,41.59
2023-04-05T07:31:06.140Z,39.80
2023-04-05T07:33:34.217Z,40.07
2023-04-05T07:36:01.378Z,39.08
2023-04-05T07:38:30.194Z,39.95
2023-04-05T07:40:57.271Z,40.73
2023-04-05T07:43:26.081Z,40.52
2023-04-05T07:45:54.181Z,40.43
2023-04-05T07:48:21.381Z,41.10
2023-04-05T07:50:49.029Z,42.32
2023-04-05T07:53:16.501Z,41.75
2023-04-05T07:55:43.752Z,42.35
2023-04-05T07:58:13.330Z,42.06
2023-04-05T08:00:40.605Z,41.62
2023-04-05T08:03:07.983Z,42.17
2023-04-05T08:05:35.168Z,39.37
2023-04-05T08:08:02.451Z,39.39
2023-04-05T08:10:30.451Z,38.78
2023-04-05T08:12:58.678Z,38.45
2023-04-05T08:15:26.256Z,36.46
2023-04-05T08:17:56.452Z,35.71
2023-04-05T08:20:28.709Z,36.52
2023-04-05T08:23:00.734Z,35.71
2023-04-05T08:25:30.662Z,34.62
2023-04-05T08:28:06.214Z,34.43
2023-04-05T08:30:35.132Z,33.85
2023-04-05T08:33:09.487Z,38.65
2023-04-05T08:35:40.030Z,37.86
2023-04-05T08:38:16.519Z,36.33
2023-04-05T08:40:49.379Z,35.38
2023-04-05T08:43:28.691Z,36.29
2023-04-05T08:46:04.464Z,36.56
2023-04-05T08:48:39.371Z,35.69
2023-04-05T08:51:12.903Z,35.28
2023-04-05T08:53:42.152Z,35.33
2023-04-05T08:56:15.508Z,34.82
2023-04-05T08:58:59.002Z,34.36
2023-04-05T09:01:31.057Z,34.18
2023-04-05T09:04:12.840Z,35.29
2023-04-05T09:06:41.779Z,36.04
2023-04-05T09:09:11.215Z,34.00
2023-04-05T09:11:46.828Z,34.01
2023-04-05T09:14:19.400Z,32.33
2023-04-05T09:16:48.101Z,32.09
2023-04-05T09:19:16.792Z,32.73
2023-04-05T09:22:07.581Z,33.10
2023-04-05T09:24:37.728Z,32.99
2023-04-05T09:27:10.066Z,33.12
2023-04-05T09:29:40.229Z,33.85
2023-04-05T09:32:12.277Z,33.30
2023-04-05T09:34:41.347Z,33.06
2023-04-05T09:37:16.737Z,31.97
2023-04-05T09:39:44.655Z,31.63
2023-04-05T09:42:16.763Z,30.81
2023-04-05T09:45:05.468Z,30.32
2023-04-05T09:47:36.851Z,30.13
2023-04-05T09:50:24.364Z,31.74
2023-04-05T09:52:52.875Z,31.52
2023-04-05T09:55:31.584Z,30.32
2023-04-05T09:58:00.945Z,30.82
2023-04-05T10:00:31.443Z,31.19
2023-04-05T10:03:00.872Z,30.70
2023-04-05T10:05:29.573Z,29.83
2023-04-05T10:07:57.390Z,28.19
2023-04-05T10:10:26.105Z,29.01
2023-04-05T10:12:54.329Z,29.24
2023-04-05T10:15:23.756Z,27.66
2023-04-05T10:18:03.899Z,28.52
2023-04-05T10:20:40.177Z,28.34
2023-04-05T10:23:33.312Z,27.02
2023-04-05T10:27:05.912Z,27.62
2023-04-05T10:29:50.988Z,27.95
2023-04-05T10:32:40.960Z,27.00
2023-04-05T10:35:11.172Z,27.59
2023-04-05T10:37:57.058Z,27.62
2023-04-05T10:40:30.786Z,27.44
2023-04-05T10:42:58.027Z,27.25
2023-04-05T10:45:27.566Z,27.08
2023-04-05T10:48:14.880Z,28.06
2023-04-05T10:50:43.099Z,27.90
2023-04-05T10:53:11.733Z,26.88
2023-04-05T10:55:39.636Z,26.98
2023-04-05T10:58:07.214Z,28.26
2023-04-05T11:00:34.782Z,28.93
2023-04-05T11:03:01.979Z,29.12
2023-04-05T11:05:37.972Z,28.81
2023-04-05T11:08:09.540Z,28.43
2023-04-05T11:10:38.802Z,28.35
2023-04-05T11:13:08.188Z,27.36
2023-04-05T11:15:35.978Z,30.62
2023-04-05T11:18:08.867Z,26.97
2023-04-05T11:20:43.684Z,28.24
2023-04-05T11:23:14.880Z,27.67
2023-04-05T11:25:49.766Z,27.67
2023-04-05T11:28:32.223Z,27.26
2023-04-05T11:31:17.036Z,28.48
2023-04-05T11:34:14.826Z,28.98
2023-04-05T11:36:48.671Z,28.67
2023-04-05T11:39:18.866Z,28.78
2023-04-05T11:41:53.951Z,27.87
2023-04-05T11:44:23.255Z,27.44
2023-04-05T11:46:51.584Z,27.02
2023-04-05T11:49:22.814Z,26.94
2023-04-05T11:51:52.475Z,27.39
2023-04-05T11:54:40.179Z,29.49
2023-04-05T11:57:25.064Z,26.72
2023-04-05T11:59:53.788Z,27.06
2023-04-05T12:02:22.548Z,27.92
2023-04-05T12:05:02.321Z,27.58
2023-04-05T12:07:32.855Z,27.04
2023-04-05T12:10:18.237Z,27.17
2023-04-05T12:12:47.932Z,26.71
2023-04-05T12:15:18.107Z,27.76
2023-04-05T12:17:51.668Z,27.49
2023-04-05T12:20:25.046Z,27.55
2023-04-05T12:22:57.781Z,27.55
2023-04-05T12:25:25.373Z,27.38
2023-04-05T12:27:52.579Z,27.11
2023-04-05T12:30:24.223Z,27.37
2023-04-05T12:32:53.284Z,29.03
2023-04-05T12:35:24.718Z,29.32
2023-04-05T12:37:52.542Z,28.30
2023-04-05T12:40:23.618Z,28.75
2023-04-05T12:42:51.523Z,28.83
2023-04-05T12:45:19.929Z,27.74
2023-04-05T12:48:00.629Z,29.86
2023-04-05T12:50:32.027Z,29.15
2023-04-05T12:53:01.167Z,29.35
2023-04-05T12:55:30.146Z,29.03
2023-04-05T12:58:02.461Z,29.36
2023-04-05T13:00:30.426Z,29.35
2023-04-05T13:02:59.162Z,28.97
2023-04-05T13:05:29.271Z,29.67
2023-04-05T13:07:56.746Z,30.14
2023-04-05T13:10:26.853Z,27.95
2023-04-05T13:12:53.924Z,27.45
2023-04-05T13:15:21.509Z,28.18
2023-04-05T13:17:50.406Z,26.61
2023-04-05T13:20:18.374Z,27.44
2023-04-05T13:22:46.530Z,27.45
2023-04-05T13:25:15.164Z,27.57
2023-04-05T13:27:42.543Z,28.25
2023-04-05T13:30:12.753Z,28.71
2023-04-05T13:32:40.385Z,27.43
2023-04-05T13:35:10.355Z,28.13
2023-04-05T13:37:38.836Z,27.81
2023-04-05T13:40:08.711Z,29.30
2023-04-05T13:42:35.876Z,30.07
2023-04-05T13:45:05.872Z,30.00
2023-04-05T13:47:35.205Z,30.03
2023-04-05T13:50:03.231Z,30.95
2023-04-05T13:52:32.514Z,31.32
2023-04-05T13:55:02.874Z,30.52
2023-04-05T13:57:31.714Z,29.23
2023-04-05T14:00:01.162Z,29.83
2023-04-05T14:02:29.045Z,30.30
2023-04-05T14:04:58.786Z,31.31
2023-04-05T14:07:26.207Z,30.92
2023-04-05T14:09:53.457Z,30.40
2023-04-05T14:12:27.087Z,29.74
2023-04-05T14:14:54.334Z,29.45
2023-04-05T14:17:21.640Z,29.66
2023-04-05T14:19:49.090Z,29.92
2023-04-05T14:22:16.712Z,29.87
2023-04-05T14:24:44.136Z,29.89
2023-04-05T14:27:12.885Z,29.83
2023-04-05T14:29:39.997Z,31.00
2023-04-05T14:32:07.218Z,30.69
2023-04-05T14:34:34.266Z,30.95
2023-04-05T14:37:05.481Z,30.65
2023-04-05T14:39:32.619Z,30.67
2023-04-05T14:42:00.275Z,30.27
2023-04-05T14:44:28.194Z,30.08
2023-04-05T14:46:55.263Z,31.18
2023-04-05T14:49:24.745Z,30.28
2023-04-05T14:51:51.812Z,30.93
2023-04-05T14:54:18.883Z,31.64
2023-04-05T14:56:47.898Z,31.90
2023-04-05T14:59:14.961Z,31.67
2023-04-05T15:01:44.624Z,31.32
2023-04-05T15:04:12.254Z,31.40
2023-04-05T15:06:39.304Z,32.35
2023-04-05T15:09:06.441Z,33.12
2023-04-05T15:11:35.814Z,32.88
2023-04-05T15:14:03.049Z,32.33
2023-04-05T15:16:30.761Z,31.86
2023-04-05T15:18:59.440Z,32.35
2023-04-05T15:21:26.527Z,33.01
2023-04-05T15:23:53.577Z,32.50
2023-04-05T15:26:21.332Z,32.15
2023-04-05T15:28:48.407Z,32.00
2023-04-05T15:31:15.579Z,31.49
2023-04-05T15:33:42.742Z,31.70
2023-04-05T15:36:10.048Z,32.68
2023-04-05T15:38:37.108Z,33.22
2023-04-05T15:41:04.309Z,33.42
2023-04-05T15:43:32.793Z,33.57
2023-04-05T15:45:59.995Z,32.54
2023-04-05T15:48:29.126Z,32.65
2023-04-05T15:50:56.306Z,32.57
2023-04-05T15:53:23.492Z,31.17
2023-04-05T15:55:50.601Z,32.40
2023-04-05T15:58:17.781Z,32.34
2023-04-05T16:00:45.002Z,31.78
2023-04-05T16:03:12.235Z,31.71
2023-04-05T16:05:39.449Z,32.34
2023-04-05T16:08:06.889Z,33.14
2023-04-05T16:10:34.077Z,33.45
2023-04-05T16:13:01.316Z,32.68
2023-04-05T16:15:28.802Z,33.75
2023-04-05T16:17:56.429Z,33.82
2023-04-05T16:20:23.957Z,33.54
2023-04-05T16:22:52.146Z,32.68
2023-04-05T16:25:19.667Z,32.41
2023-04-05T16:27:46.703Z,32.74
2023-04-05T16:30:14.295Z,33.53
2023-04-05T16:32:41.389Z,33.46
2023-04-05T16:35:08.914Z,33.31
2023-04-05T16:37:36.542Z,33.08
2023-04-05T16:40:04.707Z,34.14
2023-04-05T16:42:31.839Z,34.00
2023-04-05T16:44:58.956Z,33.96
2023-04-05T16:47:26.526Z,34.17
2023-04-05T16:49:53.743Z,34.83
2023-04-05T16:52:21.051Z,34.41
2023-04-05T16:54:48.227Z,34.29
2023-04-05T16:57:16.712Z,34.64
2023-04-05T16:59:43.833Z,33.78
2023-04-05T17:02:10.947Z,34.64
2023-04-05T17:04:38.457Z,34.91
2023-04-05T17:07:06.036Z,34.13
2023-04-05T17:09:33.519Z,33.88
2023-04-05T17:12:00.523Z,34.27
2023-04-05T17:14:27.666Z,34.93
2023-04-05T17:16:55.658Z,34.15
2023-04-05T17:19:23.081Z,33.75
2023-04-05T17:21:50.253Z,34.21
2023-04-05T17:24:19.930Z,34.61
2023-04-05T17:26:47.118Z,34.41
2023-04-05T17:29:14.267Z,35.07
2023-04-05T17:31:42.265Z,35.00
2023-04-05T17:34:13.414Z,34.02
2023-04-05T17:36:40.860Z,34.56
2023-04-05T17:39:07.906Z,34.54
2023-04-05T17:41:34.966Z,34.20
2023-04-05T17:44:01.995Z,34.16
2023-04-05T17:46:39.741Z,34.44
2023-04-05T17:49:08.668Z,34.36
2023-04-05T17:51:35.859Z,34.61
2023-04-05T17:54:03.026Z,34.87
2023-04-05T17:56:30.294Z,34.73
2023-04-05T17:58:57.251Z,34.75
2023-04-05T18:01:24.240Z,34.65
2023-04-05T18:03:51.600Z,35.42
2023-04-05T18:06:20.590Z,36.24
2023-04-05T18:08:47.631Z,36.34
2023-04-05T18:11:14.697Z,35.79
2023-04-05T18:13:41.763Z,36.44
2023-04-05T18:16:08.864Z,36.19
2023-04-05T18:18:36.513Z,37.31
2023-04-05T18:21:04.813Z,36.41
2023-04-05T18:23:33.897Z,37.20
2023-04-05T18:26:07.331Z,37.46
2023-04-05T18:28:34.312Z,37.94
2023-04-05T18:31:01.394Z,37.91
2023-04-05T18:33:28.332Z,38.21
2023-04-05T18:35:55.393Z,38.92
2023-04-05T18:38:22.375Z,39.01
2023-04-05T18:40:49.416Z,38.73
2023-04-05T18:43:16.671Z,38.47
2023-04-05T18:45:43.739Z,38.56
2023-04-05T18:48:11.693Z,38.54
2023-04-05T18:50:38.804Z,39.16
2023-04-05T18:53:07.128Z,38.81
2023-04-05T18:55:34.182Z,39.81
2023-04-05T18:58:01.510Z,39.46
2023-04-05T19:00:28.491Z,40.01
2023-04-05T19:02:55.979Z,39.94
2023-04-05T19:05:23.055Z,40.27
2023-04-05T19:07:50.047Z,40.09
2023-04-05T19:10:19.596Z,40.32
2023-04-05T19:12:47.067Z,39.58
2023-04-05T19:15:14.116Z,40.74
2023-04-05T19:17:41.220Z,40.33
2023-04-05T19:20:08.747Z,41.40
2023-04-05T19:22:35.984Z,40.19
2023-04-05T19:25:04.347Z,40.74
2023-04-05T19:27:33.117Z,40.63
2023-04-05T19:30:00.349Z,41.74
2023-04-05T19:32:27.454Z,41.76
2023-04-05T19:34:54.658Z,41.47
2023-04-05T19:37:21.705Z,42.48
2023-04-05T19:39:48.981Z,41.46
2023-04-05T19:42:16.142Z,41.96
2023-04-05T19:44:43.091Z,42.20
2023-04-05T19:47:11.367Z,41.59
2023-04-05T19:49:42.691Z,42.24
2023-04-05T19:52:13.234Z,42.14
2023-04-05T19:54:42.973Z,42.22
2023-04-05T19:57:10.266Z,42.84
2023-04-05T19:59:38.230Z,42.85
2023-04-05T20:02:19.690Z,43.38
2023-04-05T20:04:48.213Z,42.90
2023-04-05T20:07:15.711Z,42.11
2023-04-05T20:09:44.469Z,42.14
2023-04-05T20:12:13.811Z,42.13
2023-04-05T20:14:44.211Z,42.08
2023-04-05T20:17:13.367Z,42.43
2023-04-05T20:19:42.674Z,42.44
2023-04-05T20:22:09.882Z,43.12
2023-04-05T20:24:39.365Z,43.50
2023-04-05T20:27:06.685Z,42.89
2023-04-05T20:29:33.908Z,42.85
2023-04-05T20:32:02.100Z,43.90
2023-04-05T20:34:31.821Z,43.32
2023-04-05T20:37:03.141Z,43.70
2023-04-05T20:39:31.620Z,44.32
2023-04-05T20:41:58.733Z,44.04
2023-04-05T20:44:26.216Z,44.75
2023-04-05T20:46:55.016Z,43.92
2023-04-05T20:49:22.690Z,44.00
2023-04-05T20:51:55.087Z,44.68
2023-04-05T20:54:22.744Z,44.34
2023-04-05T20:56:51.850Z,44.33
2023-04-05T20:59:18.876Z,44.66
2023-04-05T21:01:47.777Z,44.41
2023-04-05T21:04:14.971Z,44.59
2023-04-05T21:06:42.537Z,44.08
2023-04-05T21:09:10.101Z,45.04
2023-04-05T21:11:37.624Z,45.08
2023-04-05T21:14:04.762Z,44.76
2023-04-05T21:16:32.018Z,44.31
2023-04-05T21:18:59.017Z,44.57
2023-04-05T21:21:26.508Z,45.27
2023-04-05T21:23:53.541Z,45.75
2023-04-05T21:26:21.739Z,45.73
2023-04-05T21:28:48.796Z,46.28
2023-04-05T21:31:15.873Z,45.92
2023-04-05T21:33:44.154Z,45.40
2023-04-05T21:36:11.227Z,45.24
2023-04-05T21:38:38.256Z,45.67
2023-04-05T21:41:05.364Z,46.13
2023-04-05T21:43:32.357Z,46.32
2023-04-05T21:45:59.273Z,47.01
2023-04-05T21:48:28.290Z,47.83
2023-04-05T21:50:56.120Z,47.60
2023-04-05T21:53:25.681Z,47.88
2023-04-05T21:55:53.129Z,47.77
2023-04-05T21:58:20.166Z,47.20
2023-04-05T22:00:47.647Z,46.86
2023-04-05T22:03:14.841Z,48.26
2023-04-05T22:05:42.912Z,48.82
2023-04-05T22:08:11.155Z,47.94
2023-04-05T22:10:38.629Z,48.50
2023-04-05T22:13:05.618Z,48.24
2023-04-05T22:15:32.557Z,47.75
2023-04-05T22:17:59.580Z,47.61
2023-04-05T22:20:26.830Z,47.63
2023-04-05T22:22:53.997Z,48.72
2023-04-05T22:25:21.147Z,48.11
2023-04-05T22:27:48.108Z,47.99
2023-04-05T22:30:16.151Z,48.33
2023-04-05T22:32:43.308Z,49.03
2023-04-05T22:35:10.910Z,48.83
2023-04-05T22:37:38.585Z,49.63
2023-04-05T22:40:06.404Z,49.83
2023-04-05T22:42:33.375Z,50.94
2023-04-05T22:45:00.499Z,51.36
2023-04-05T22:47:27.567Z,50.20
2023-04-05T22:49:54.623Z,50.52
2023-04-05T22:52:21.909Z,49.72
2023-04-05T22:54:48.969Z,50.12
2023-04-05T22:57:16.210Z,49.27
2023-04-05T22:59:43.541Z,49.39
2023-04-05T23:02:12.664Z,49.18
2023-04-05T23:04:39.874Z,48.83
2023-04-05T23:07:07.031Z,47.88
2023-04-05T23:09:34.180Z,48.18
2023-04-05T23:12:01.351Z,48.11
2023-04-05T23:14:28.321Z,48.29
2023-04-05T23:16:55.322Z,47.96
2023-04-05T23:19:22.372Z,47.85
2023-04-05T23:21:49.333Z,47.56
2023-04-05T23:24:16.385Z,48.04
2023-04-05T23:26:43.347Z,48.19
2023-04-05T23:29:10.587Z,48.69
2023-04-05T23:31:37.720Z,48.12
2023-04-05T23:34:04.757Z,48.50
2023-04-05T23:36:32.720Z,49.02
2023-04-05T23:39:00.502Z,48.42
2023-04-05T23:41:27.791Z,49.01
2023-04-05T23:43:54.716Z,48.82
2023-04-05T23:46:22.389Z,48.43
2023-04-05T23:48:49.548Z,48.95
2023-04-05T23:51:16.575Z,48.36
2023-04-05T23:53:43.540Z,48.15
2023-04-05T23:56:10.552Z,48.55
2023-04-05T23:58:37.485Z,48.26
